Map

Track Data

SID SEASON NUMBER BASIN SUBBASIN NAME ISO_TIME NATURE LAT LON WMO_WIND WMO_PRES WMO_AGENCY TRACK_TYPE DIST2LAND LANDFALL IFLAG USA_AGENCY USA_ATCF_ID USA_LAT USA_LON USA_RECORD USA_STATUS USA_WIND USA_PRES USA_SSHS USA_R34_NE USA_R34_SE USA_R34_SW USA_R34_NW USA_R50_NE USA_R50_SE USA_R50_SW USA_R50_NW USA_R64_NE USA_R64_SE USA_R64_SW USA_R64_NW USA_POCI USA_ROCI USA_RMW USA_EYE TOKYO_LAT TOKYO_LON TOKYO_GRADE TOKYO_WIND TOKYO_PRES TOKYO_R50_DIR TOKYO_R50_LONG TOKYO_R50_SHORT TOKYO_R30_DIR TOKYO_R30_LONG TOKYO_R30_SHORT TOKYO_LAND CMA_LAT CMA_LON CMA_CAT CMA_WIND CMA_PRES HKO_LAT HKO_LON HKO_CAT HKO_WIND HKO_PRES NEWDELHI_LAT NEWDELHI_LON NEWDELHI_GRADE NEWDELHI_WIND NEWDELHI_PRES NEWDELHI_CI NEWDELHI_DP NEWDELHI_POCI REUNION_LAT REUNION_LON REUNION_TYPE REUNION_WIND REUNION_PRES REUNION_TNUM REUNION_CI REUNION_RMW REUNION_R34_NE REUNION_R34_SE REUNION_R34_SW REUNION_R34_NW REUNION_R50_NE REUNION_R50_SE REUNION_R50_SW REUNION_R50_NW REUNION_R64_NE REUNION_R64_SE REUNION_R64_SW REUNION_R64_NW BOM_LAT BOM_LON BOM_TYPE BOM_WIND BOM_PRES BOM_TNUM BOM_CI BOM_RMW BOM_R34_NE BOM_R34_SE BOM_R34_SW BOM_R34_NW BOM_R50_NE BOM_R50_SE BOM_R50_SW BOM_R50_NW BOM_R64_NE BOM_R64_SE BOM_R64_SW BOM_R64_NW BOM_ROCI BOM_POCI BOM_EYE BOM_POS_METHOD BOM_PRES_METHOD NADI_LAT NADI_LON NADI_CAT NADI_WIND NADI_PRES WELLINGTON_LAT WELLINGTON_LON WELLINGTON_WIND WELLINGTON_PRES DS824_LAT DS824_LON DS824_STAGE DS824_WIND DS824_PRES TD9636_LAT TD9636_LON TD9636_STAGE TD9636_WIND TD9636_PRES TD9635_LAT TD9635_LON TD9635_WIND TD9635_PRES TD9635_ROCI NEUMANN_LAT NEUMANN_LON NEUMANN_CLASS NEUMANN_WIND NEUMANN_PRES MLC_LAT MLC_LON MLC_CLASS MLC_WIND MLC_PRES USA_GUST BOM_GUST BOM_GUST_PER REUNION_GUST REUNION_GUST_PER USA_SEAHGT USA_SEARAD_NE USA_SEARAD_SE USA_SEARAD_SW USA_SEARAD_NW STORM_SPEED STORM_DIR
1938033S18052 1938 12 SI MM NOT_NAMED 1938-02-02 06:00:00 NR -18.0000 52.0000 reunion main 266 260 _____O________ -1 -18.0000 52.0000 99 9.90000 4 197
1938033S18052 1938 12 SI MM NOT_NAMED 1938-02-02 09:00:00 NR -18.1851 51.9364 main 260 260 _____P________ -1 -18.1851 51.9364 99 4 198
1938033S18052 1938 12 SI MM NOT_NAMED 1938-02-02 12:00:00 NR -18.3704 51.8727 main 264 254 _____P________ -1 -18.3704 51.8727 99 4 198
1938033S18052 1938 12 SI MM NOT_NAMED 1938-02-02 15:00:00 NR -18.5561 51.8093 main 257 257 _____P________ -1 -18.5561 51.8093 99 3 193
1938033S18052 1938 12 SI MM NOT_NAMED 1938-02-02 18:00:00 NR -18.6541 51.7969 main 259 259 _____P____O___ -1 -18.7426 51.7462 99 -18.3000 52.0000 1 3 192
1938033S18052 1938 12 SI MM NOT_NAMED 1938-02-02 21:00:00 NR -18.8434 51.7538 main 261 254 _____P____P___ -1 -18.9299 51.6835 99 -18.6704 51.8942 1 4 192
1938033S18052 1938 12 SI MM NOT_NAMED 1938-02-03 00:00:00 NR -19.0774 51.6940 main 262 257 _____P____P___ -1 -19.1185 51.6215 99 -19.0226 51.7906 1 5 194
1938033S18052 1938 12 SI MM NOT_NAMED 1938-02-03 03:00:00 NR -19.3235 51.6259 main 261 261 _____P____P___ -1 -19.3084 51.5603 99 -19.3385 51.6916 1 5 195
1938033S18052 1938 12 SI MM NOT_NAMED 1938-02-03 06:00:00 TS -19.5556 51.5556 reunion main 270 260 _____O___OO___ -1 -19.5000 51.5000 99 9.90000 -19.6000 51.6000 TC 25 -19.6000 51.6000 1 4 198
1938033S18052 1938 12 SI MM NOT_NAMED 1938-02-03 09:00:00 TS -19.7457 51.4807 main 263 257 _____P___PP___ -1 -19.6940 51.4405 99 -19.7450 51.4876 TC 25 -19.7978 51.5175 1 4 201
1938033S18052 1938 12 SI MM NOT_NAMED 1938-02-03 12:00:00 TS -19.9185 51.4081 main 261 261 _____P___OP___ -1 -19.8934 51.3803 99 -19.9000 51.4000 TC 25 -19.9575 51.4421 1 4 200
1938033S18052 1938 12 SI MM NOT_NAMED 1938-02-03 15:00:00 TS -20.0975 51.3460 main 261 261 _____P___PP___ -1 -20.1017 51.3175 99 -20.0775 51.3499 TC 25 -20.1134 51.3707 1 4 197
1938033S18052 1938 12 SI MM NOT_NAMED 1938-02-03 18:00:00 TS -20.3075 51.2835 main 263 254 _____P___OO___ -1 -20.3224 51.2504 99 -20.3000 51.3000 TC 25 -20.3000 51.3000 1 5 196
1938033S18052 1938 12 SI MM NOT_NAMED 1938-02-03 21:00:00 TS -20.5639 51.2060 main 259 255 _____P___PP___ -1 -20.5590 51.1769 99 -20.5850 51.2001 TC 25 -20.5478 51.2409 1 6 195
1938033S18052 1938 12 SI MM NOT_NAMED 1938-02-04 00:00:00 TS -20.8492 51.1249 main 255 255 _____P___OP___ -1 -20.8152 51.0954 99 -20.9000 51.1000 TC 25 -20.8324 51.1794 1 6 194
1938033S18052 1938 12 SI MM NOT_NAMED 1938-02-04 03:00:00 TS -21.1434 51.0547 main 269 264 _____P___PP___ -1 -21.0943 51.0037 99 -21.1850 51.0573 TC 25 -21.1509 51.1033 1 6 194
1938033S18052 1938 12 SI MM NOT_NAMED 1938-02-04 06:00:00 TS -21.4667 50.9667 reunion main 275 262 _____O___OO___ -1 -21.4000 50.9000 99 9.90000 -21.5000 51.0000 TC 25 -21.5000 51.0000 1 7 197
1938033S18052 1938 12 SI MM NOT_NAMED 1938-02-04 09:00:00 TS -21.8301 50.8297 main 262 256 _____P___PP___ -1 -21.7340 50.7745 99 -21.8850 50.8725 TC 25 -21.8714 50.8420 1 8 200
1938033S18052 1938 12 SI MM NOT_NAMED 1938-02-04 12:00:00 TS -22.2217 50.6646 main 261 249 _____P___OP___ -1 -22.0948 50.6358 99 -22.3000 50.7000 TC 25 -22.2702 50.6581 1 9 202
1938033S18052 1938 12 SI MM NOT_NAMED 1938-02-04 15:00:00 TS -22.6208 50.4832 main 253 247 _____P___PP___ -1 -22.4784 50.4869 99 -22.7000 50.4926 TC 25 -22.6839 50.4701 1 9 202
1938033S18052 1938 12 SI MM NOT_NAMED 1938-02-04 18:00:00 TS -23.0269 50.3103 main 252 247 _____P___OO___ -1 -22.8807 50.3310 99 -23.1000 50.3000 TC 25 -23.1000 50.3000 1 9 199
1938033S18052 1938 12 SI MM NOT_NAMED 1938-02-04 21:00:00 TS -23.4285 50.1819 main 251 244 _____P___PP___ -1 -23.2979 50.1711 99 -23.5000 50.1848 TC 25 -23.4876 50.1898 1 8 195
1938033S18052 1938 12 SI MM NOT_NAMED 1938-02-05 00:00:00 TS -23.8345 50.0697 main 248 240 _____P___OP___ -1 -23.7262 50.0105 99 -23.9000 50.1000 TC 25 -23.8773 50.0988 1 8 194
1938033S18052 1938 12 SI MM NOT_NAMED 1938-02-05 03:00:00 TS -24.2441 49.9585 main 250 242 _____P___PP___ -1 -24.1615 49.8524 99 -24.2925 50.0148 TC 25 -24.2783 50.0084 1 9 195
1938033S18052 1938 12 SI MM NOT_NAMED 1938-02-05 06:00:00 TS -24.6667 49.8333 reunion main 245 244 _____O___OO___ -1 -24.6000 49.7000 99 9.90000 -24.7000 49.9000 TC 25 -24.7000 49.9000 1 9 197
1938033S18052 1938 12 SI MM NOT_NAMED 1938-02-05 09:00:00 TS -25.1112 49.6627 main 251 243 _____P___PP___ -1 -25.0369 49.5417 99 -25.1351 49.7076 TC 25 -25.1617 49.7388 1 10 199
1938033S18052 1938 12 SI MM NOT_NAMED 1938-02-05 12:00:00 TS -25.5748 49.4809 main 250 243 _____P___OP___ -1 -25.4818 49.3846 99 -25.6000 49.5000 TC 25 -25.6427 49.5581 1 10 198
1938033S18052 1938 12 SI MM NOT_NAMED 1938-02-05 15:00:00 TS -26.0552 49.3162 main 252 252 _____P___PP___ -1 -25.9309 49.2329 99 -26.1075 49.3424 TC 25 -26.1273 49.3732 1 10 197
1938033S18052 1938 12 SI MM NOT_NAMED 1938-02-05 18:00:00 TS -26.5267 49.1635 main 268 268 _____P___OO___ -1 -26.3801 49.0906 99 -26.6000 49.2000 TC 25 -26.6000 49.2000 1 9 196
1938033S18052 1938 12 SI MM NOT_NAMED 1938-02-05 21:00:00 TS -26.9606 49.0183 main 291 291 _____P___PP___ -1 -26.8255 48.9618 99 -27.0075 49.0424 TC 25 -27.0490 49.0508 1 9 196
1938033S18052 1938 12 SI MM NOT_NAMED 1938-02-06 00:00:00 TS -27.3685 48.8871 main 319 319 _____P___OP___ -1 -27.2632 48.8509 99 -27.4000 48.9000 TC 25 -27.4774 48.9225 1 8 194
1938033S18052 1938 12 SI MM NOT_NAMED 1938-02-06 03:00:00 TS -27.7765 48.7806 main 350 350 _____P___PP___ -1 -27.6894 48.7621 99 -27.8350 48.7901 TC 25 -27.8921 48.8080 1 8 192
1938033S18052 1938 12 SI MM NOT_NAMED 1938-02-06 06:00:00 TS -28.1667 48.7000 reunion main 384 384 _____O___OO___ -1 -28.1000 48.7000 99 9.90000 -28.3000 48.7000 TC 25 -28.3000 48.7000 1 7 187
1938033S18052 1938 12 SI MM NOT_NAMED 1938-02-06 09:00:00 NR -28.4923 48.6676 main 413 413 _____P________ -1 -28.4923 48.6676 99 TC 1 7 183
1938033S18052 1938 12 SI MM NOT_NAMED 1938-02-06 12:00:00 NR -28.8677 48.6627 main 453 453 _____P________ -1 -28.8677 48.6627 99 1 7 0
1938033S18052 1938 12 SI MM NOT_NAMED 1938-02-06 15:00:00 NR -29.2286 48.6815 main 484 484 _____P________ -1 -29.2286 48.6815 99 1 7 175
1938033S18052 1938 12 SI MM NOT_NAMED 1938-02-06 18:00:00 NR -29.5774 48.7205 main 525 525 _____P________ -1 -29.5774 48.7205 99 7 174
1938033S18052 1938 12 SI MM NOT_NAMED 1938-02-06 21:00:00 NR -29.9165 48.7757 main 560 560 _____P________ -1 -29.9165 48.7757 99 7 171
1938033S18052 1938 12 SI MM NOT_NAMED 1938-02-07 00:00:00 NR -30.2484 48.8433 main 591 591 _____P________ -1 -30.2484 48.8433 99 7 169
1938033S18052 1938 12 SI MM NOT_NAMED 1938-02-07 03:00:00 NR -30.5755 48.9194 main 637 637 _____P________ -1 -30.5755 48.9194 99 7 168
1938033S18052 1938 12 SI MM NOT_NAMED 1938-02-07 06:00:00 NR -30.9000 49.0000 reunion main 671 _____O________ -1 -30.9000 49.0000 99 9.90000 7 169

About IBTrACS Database

This database is a web-friendly format of International Best Track Archive for Climate Stewardship (IBTrACS), a global best track data archive curated by NOAA dating back to 1842.

Updated: 2021-10-08